Purgatory, Colorado
Current Conditions -  °F | °C
As of 2:53 PM on Friday 19 Dec 2014 (Local Time) from KDRO Reporting Station
Scattered Clouds Scattered Clouds  
Wind Chill: 34°   Ceiling: Unl
Heat Index: 34°   Visibility: 10mi
Dew Point: 22°   Wind: 0mph
Humidity: 61%   Direction: NA
Pressure: 30.16"   Gusts: NA
Location:  37.1483°N, 107.911°W
Report Text: KDRO 192153Z AUTO 00000KT 10SM SCT032 01/M06 A3016 RMK AO2 SLP249 T00111056
Loading
Personal Weather Stations






























Interactive Weather Map New forecast layout! Learn more

10-Day Weather Forecast

Advertisements
Track Severe Weather on mobile